Station: Davey Gorge (Pws)

  Atmospheric Gas Attenuation - ITU Rec 676-11   --------------- db/100km ---------------
Date Time Temp RH % AH g/m3 Dew Point Wind Direction Speed kph Gust kph Barometer mB Rainfall Since 9am 24GHz 47GHz 76GHz 122GHz 134GHz 241GHz
22 12:00 25.4 43 10.12 12.2 17 22 1013.1 0 22.2 25.0 39.8 104.7 102.6 354.6
22 11:30 25.3 44 10.3 12.4 11 15 1013.1 0 22.6 25.2 40.5 106.6 104.9 362.6
22 11:00 25.1 41 9.49 11.1 11 13 1013.1 0 20.9 24.1 37.7 99.0 95.5 329.9
22 10:30 25.6 43 10.24 12.4 6 11 1013.1 0 22.5 25.1 40.2 105.6 103.8 358.7
22 10:00 24.4 44 9.79 11.5 2 4 1013.1 0 21.6 24.7 39.1 102.8 99.9 345.2
22 09:30 21.5 55 10.37 12.2 6 7 1013.1 0 23.0 26.4 42.8 112.4 110.9 383.3
22 09:00 20.3 57 10.02 11.7 6 7 1013.1 0 22.3 26.2 42.0 110.5 108.2 373.5
22 08:30 17.6 68 10.2 11.7 6 7 1013.1 0 22.8 27.3 44.2 116.3 114.4 394.8
22 08:00 15.1 76 9.8 10.9 7 9 1013.1 0 22.1 27.5 44.0 115.6 112.7 388.6
22 07:30 13.9 80 9.59 10.5 9 11 1013.1 0 21.7 27.5 43.8 115.1 111.6 384.5
22 07:00 12.8 85 9.52 10.3 7 9 1013.1 0 21.6 27.7 44.1 115.9 112.2 386.6
22 06:30 11 90 9.01 9.4 9 11 1013.1 0 20.6 27.4 43.0 112.8 107.7 370.6
22 06:00 11.3 89 9.08 9.6 6 6 1013.1 0 20.7 27.4 43.1 113.2 108.2 372.6
22 05:30 11.6 88 9.15 9.7 7 9 1013.1 0 20.9 27.5 43.2 113.5 108.8 374.6
22 05:00 11.5 89 9.19 9.7 7 11 1013.1 0 21.0 27.6 43.4 114.1 109.5 377.0
22 04:30 11.7 86 9 9.4 0 2 1013.1 0 20.6 27.2 42.5 111.7 106.6 366.8
22 04:00 12.7 82 9.13 9.8 2 2 1013.1 0 20.8 27.1 42.5 111.7 107.0 368.3
22 03:30 13.2 81 9.3 10 6 9 1013.1 0 21.1 27.2 43.0 112.9 108.6 374.1
22 03:00 12.7 83 9.24 9.9 9 13 1013.1 0 21.0 27.3 43.0 113.0 108.5 373.6
22 02:30 12.5 83 9.13 9.8 7 11 1013.1 0 20.8 27.2 42.6 112.0 107.3 369.3
22 02:00 12.9 82 9.24 9.9 13 13 1013.1 0 21.0 27.2 42.9 112.7 108.2 372.7
22 01:30 12.9 81 9.13 9.8 9 11 1013.1 0 20.8 27.0 42.4 111.4 106.7 367.4
22 01:00 13.4 80 9.3 10 7 9 1013.1 0 21.1 27.2 42.9 112.6 108.3 373.1
22 00:30 13.8 77 9.17 9.9 0 2 1013.1 0 20.8 26.8 42.1 110.6 106.0 365.1
22 00:00 14.6 71 8.88 9.5 6 6 1013.1 0 20.1 26.1 40.5 106.4 101.1 347.9
21 23:30 15.9 66 8.94 9.7 6 7 1013.1 0 20.2 25.8 40.1 105.3 100.2 344.9
21 23:00 16.1 67 9.18 10.1 11 13 1013.1 0 20.7 26.2 40.9 107.5 103.0 355.0
21 22:30 16.6 62 8.76 9.3 11 13 1013.1 0 19.8 25.3 39.0 102.5 97.0 333.8
21 22:00 16.5 63 8.85 9.5 7 9 1013.1 0 20.0 25.5 39.4 103.5 98.2 338.3
21 21:30 17.3 60 8.84 9.6 11 13 1013.1 0 19.9 25.3 39.0 102.4 97.1 334.4
21 21:00 18.3 63 9.85 11.2 9 13 1013.1 0 22.0 26.6 42.4 111.6 108.8 375.3
21 20:30 19.6 58 9.79 11.3 9 11 1013.1 0 21.8 26.1 41.5 109.1 106.2 366.5
21 20:00 20.8 55 9.96 11.6 11 15 1013.1 0 22.1 26.0 41.6 109.2 106.7 368.5
21 19:30 21.1 53 9.76 11.2 11 13 1013.1 0 21.7 25.6 40.6 106.8 103.8 358.4
21 19:00 21.6 46 8.72 9.5 15 19 1013.1 0 19.5 23.9 36.5 95.9 90.5 311.9
21 18:30 22.6 40 8.03 8.5 19 22 1013.1 0 18.0 22.7 33.7 88.2 81.4 279.9
21 18:00 22.7 30 6.06 4.6 22 26 1013.1 0 13.9 20.0 27.0 70.4 59.5 203.1
21 17:30 23 35 7.19 6.8 20 24 1013.1 0 16.2 21.4 30.6 80.1 71.5 245.4
21 17:00 23.5 44 9.3 10.7 20 26 1013.1 0 20.6 24.3 37.8 99.2 95.2 328.5
21 16:30 23.9 39 8.44 9.2 19 22 1013.1 0 18.8 22.9 34.6 90.6 84.7 291.9
21 16:00 24.1 40 8.75 9.8 26 30 1013.1 0 19.4 23.3 35.5 93.2 88.1 303.6
21 15:30 25.3 36 8.43 9.2 22 30 1013.1 0 18.7 22.6 33.9 89.0 83.2 286.5
21 15:00 25.6 36 8.57 9.5 17 19 1013.1 0 19.0 22.7 34.3 89.9 84.4 291.0
21 14:30 24.9 38 8.7 9.8 20 22 1013.1 0 19.3 23.0 35.0 91.9 86.6 298.7
21 14:00 24.9 42 9.61 11.1 19 20 1013.1 0 21.2 24.3 38.2 100.4 97.2 335.6
21 13:30 24.4 46 10.24 12 17 20 1013.1 0 22.5 25.4 40.8 107.2 105.3 364.1
21 13:00 23.4 49 10.3 12.1 17 20 1013.1 0 22.7 25.8 41.5 109.1 107.4 371.2
21 12:30 23.4 53 11.14 13.4 17 20 1013.1 0 24.5 27.1 44.7 117.6 117.9 407.8
21 12:00 23.7 53 11.34 13.6 13 17 1013.1 0 24.9 27.3 45.3 119.2 119.9 415.1
21 11:30 23.9 53 11.47 13.8 9 11 1013.1 0 25.1 27.4 45.7 120.3 121.3 419.8
21 11:00 24 52 11.31 13.7 9 13 1013.1 0 24.8 27.2 45.0 118.5 119.1 412.2
21 10:30 22.7 55 11.11 13.3 6 7 1013.1 0 24.4 27.2 45.0 118.3 118.5 410.1
21 10:00 21.8 57 10.94 13.1 4 7 1013.1 0 24.1 27.2 44.8 117.9 117.7 407.2
21 09:30 20.1 63 10.95 13 4 6 1013.1 0 24.3 27.8 45.8 120.6 120.5 416.5
21 09:00 17.8 73 11.08 12.9 4 6 1013.1 0 24.7 28.7 47.7 125.6 125.9 435.1
21 08:30 16 82 11.17 13 4 7 1013.1 0 25.0 29.5 49.2 129.6 130.1 449.7
21 08:00 14 89 10.74 12.3 6 7 1013.1 0 24.2 29.4 48.6 127.9 127.4 440.0
21 07:30 12.4 91 9.94 11 7 7 1013.1 0 22.5 28.6 46.1 121.3 118.7 409.2
21 07:00 12.2 92 9.93 11 2 6 1013.1 0 22.5 28.6 46.2 121.5 118.8 409.8
21 06:30 10.8 93 9.19 9.8 7 7 1013.1 0 21.0 27.8 43.8 115.2 110.5 380.4
21 06:00 10.9 94 9.35 10 7 7 1013.1 0 21.3 28.0 44.5 116.9 112.6 387.8
21 05:30 11 93 9.31 10 4 6 1013.1 0 21.3 27.9 44.2 116.3 111.9 385.3
21 05:00 11 93 9.31 10 4 6 1013.1 0 21.3 27.9 44.2 116.3 111.9 385.3
21 04:30 11.1 93 9.37 10 2 4 1013.1 0 21.4 28.0 44.4 116.8 112.6 387.8
21 04:00 11.4 92 9.44 10.2 4 4 1013.1 0 21.5 28.0 44.6 117.1 113.1 389.7
21 03:30 11.8 92 9.68 10.5 4 4 1013.1 0 22.0 28.3 45.4 119.3 115.9 399.5
21 03:00 12.1 90 9.65 10.6 0 2 1013.1 0 21.9 28.2 45.1 118.5 115.0 396.5
21 02:30 12.4 90 9.83 10.8 2 2 1013.1 0 22.3 28.4 45.7 120.1 117.1 403.8
21 02:00 12.7 90 10.02 11.1 7 9 1013.1 0 22.7 28.6 46.3 121.8 119.3 411.6
21 01:30 12.7 89 9.91 10.9 6 6 1013.1 0 22.5 28.4 45.8 120.5 117.8 406.2
21 01:00 13.1 87 9.93 11 4 6 1013.1 0 22.5 28.3 45.7 120.1 117.5 405.0
21 00:30 13.2 85 9.76 10.8 9 9 1013.1 0 22.1 28.0 44.9 118.0 114.9 396.2
21 00:00 13.8 84 10.01 11.1 7 9 1013.1 0 22.6 28.2 45.6 119.9 117.5 405.3
20 23:30 13.7 83 9.83 10.9 2 4 1013.1 0 22.2 28.0 44.9 118.1 115.2 397.1
20 23:00 14.4 81 10.01 11.2 0 0 1013.1 0 22.6 28.0 45.3 119.0 116.6 402.2
20 22:30 15.1 78 10.06 11.3 0 2 1013.1 0 22.6 27.9 45.1 118.5 116.2 400.9
20 22:00 16.1 72 9.87 11.2 0 2 1013.1 0 22.2 27.3 43.7 114.9 112.2 386.9
20 21:30 16.6 67 9.46 10.6 2 4 1013.1 0 21.3 26.5 41.8 109.8 106.0 365.5
20 21:00 16.9 67 9.64 10.9 4 4 1013.1 0 21.7 26.7 42.4 111.3 108.0 372.4
20 20:30 18.5 64 10.13 11.6 7 7 1013.1 0 22.6 27.0 43.4 114.2 112.1 387.1
20 20:00 20.2 56 9.79 11.3 9 11 1013.1 0 21.8 25.9 41.2 108.3 105.4 363.8
20 19:30 20.6 55 9.84 11.2 13 17 1013.1 0 21.9 25.9 41.2 108.3 105.5 364.1
20 19:00 21.1 55 10.13 11.8 15 19 1013.1 0 22.5 26.2 42.0 110.5 108.4 374.6
20 18:30 21.7 52 9.92 11.6 15 17 1013.1 0 22.0 25.7 40.9 107.6 105.0 362.6
20 18:00 21.6 54 10.24 11.9 17 20 1013.1 0 22.7 26.2 42.2 111.0 109.1 377.1
20 17:30 21.7 55 10.49 12.3 19 24 1013.1 0 23.2 26.6 43.1 113.4 112.2 387.6
20 17:00 22.2 55 10.8 12.9 17 22 1013.1 0 23.8 26.9 44.0 115.9 115.4 398.9
20 16:30 22.4 55 10.92 13.1 20 24 1013.1 0 24.1 27.0 44.4 116.8 116.6 403.2
20 16:00 22.5 55 10.98 13 20 26 1013.1 0 24.2 27.1 44.6 117.3 117.2 405.4
20 15:30 22.8 54 10.97 13 20 24 1013.1 0 24.1 27.0 44.4 116.7 116.6 403.4
20 15:00 23.2 51 10.6 12.6 20 24 1013.1 0 23.3 26.3 42.7 112.4 111.4 385.2
20 14:30 23.3 50 10.45 12.4 20 26 1013.1 0 23.0 26.0 42.1 110.7 109.4 378.2
20 14:00 23.6 47 10 11.7 17 19 1013.1 0 22.1 25.3 40.3 105.9 103.5 357.5
20 13:30 23.3 48 10.04 11.8 15 19 1013.1 0 22.2 25.4 40.6 106.7 104.4 360.6
20 13:00 24.2 47 10.34 12.3 11 15 1013.1 0 22.7 25.6 41.2 108.4 106.8 369.3
20 12:30 23.7 47 10.05 11.9 11 15 1013.1 0 22.2 25.3 40.4 106.2 104.0 359.2
20 12:00 24 45 9.79 11.5 6 7 1013.1 0 21.6 24.9 39.3 103.3 100.4 346.9
20 11:30 23.1 45 9.3 10.6 7 9 1013.1 0 20.6 24.4 38.0 99.7 95.7 330.2
20 11:00 21.9 51 9.84 11.4 7 9 1013.1 0 21.8 25.5 40.5 106.5 103.8 358.3
20 10:30 20.7 57 10.26 11.9 7 11 1013.1 0 22.8 26.5 42.8 112.4 110.7 382.3

Last Refresh: 22-Jan-2022 12:01:11

Bureau of Meteorology